General Piran, Argentina
Current Conditions -  °F | °C
As of 9:00 AM on Saturday 25 Oct 2014 (Local Time) from SAZM Reporting Station
Broken Clouds Broken Clouds  
Wind Chill: 63°   Ceiling: 800
Heat Index: 63°   Visibility: 5mi
Dew Point: 61°   Wind: 3mph
Humidity: 94%   Direction: 340°NNW
Pressure: 30"   Gusts: NA
Location:  37.28°S, 57.79°W
Report Text: SAZM 251200Z 34003KT 8000 BKN008 BKN01217/16 Q1016
Loading
Personal Weather Stations






























Interactive Weather Map
Tropical Storm Tracking
New forecast layout! Learn more

10-Day Weather Forecast

Advertisements
Track Severe Weather on mobile